Time;durP1;ratioP1;P1;durP2;ratioP2;P2;SDS_P1;SDS_P2;PMS_P1;PMS_P2;Temp;Humidity;BMP_temperature;BMP_pressure;BME280_temperature;BME280_humidity;BME280_pressure;Samples;Min_cycle;Max_cycle;Signal;HPM_P1;HPM_P2
2021/08/09 00:01:38;;;;;;;1.73;1.63;;;13.00;99.90;;;;;;492345;241;28384;-70
2021/08/09 00:03:39;;;;;;;1.60;1.53;;;13.00;99.90;;;;;;492276;241;28573;-70
2021/08/09 00:05:41;;;;;;;1.87;1.77;;;13.00;99.90;;;;;;492341;241;28866;-70
2021/08/09 00:07:42;;;;;;;2.00;1.40;;;12.90;99.90;;;;;;492224;241;28682;-70
2021/08/09 00:09:43;;;;;;;1.60;1.50;;;12.90;99.90;;;;;;492330;241;28469;-70
2021/08/09 00:11:44;;;;;;;2.50;1.63;;;12.90;99.90;;;;;;492352;241;28751;-70
2021/08/09 00:13:47;;;;;;;1.77;1.67;;;12.90;99.90;;;;;;492334;241;28376;-70
2021/08/09 00:15:47;;;;;;;1.60;1.50;;;12.90;99.90;;;;;;492292;241;28361;-70
2021/08/09 00:17:48;;;;;;;2.07;1.83;;;12.90;99.90;;;;;;492295;241;28514;-70
2021/08/09 00:19:49;;;;;;;1.57;1.50;;;12.80;99.90;;;;;;492332;241;28032;-70
2021/08/09 00:21:52;;;;;;;1.67;1.60;;;;;;;;;;492348;241;28417;-70
2021/08/09 00:23:53;;;;;;;1.70;1.60;;;12.80;99.90;;;;;;492345;241;27032;-70
2021/08/09 00:25:54;;;;;;;1.70;1.30;;;12.80;99.90;;;;;;492379;237;28625;-70
2021/08/09 00:27:56;;;;;;;1.80;1.70;;;12.80;99.90;;;;;;492317;241;28245;-70
2021/08/09 00:29:57;;;;;;;1.80;1.70;;;12.80;99.90;;;;;;492333;241;28503;-70
2021/08/09 00:31:58;;;;;;;2.30;1.47;;;12.80;99.90;;;;;;492334;241;28514;-70
2021/08/09 00:34:01;;;;;;;1.67;1.60;;;;;;;;;;492336;241;28496;-70
2021/08/09 00:36:02;;;;;;;1.90;1.80;;;12.70;99.90;;;;;;492355;241;27516;-70
2021/08/09 00:38:03;;;;;;;1.73;1.63;;;12.70;99.90;;;;;;492346;241;28026;-70
2021/08/09 00:40:04;;;;;;;1.83;1.73;;;12.70;99.90;;;;;;492350;241;28379;-69
2021/08/09 00:42:07;;;;;;;1.80;1.70;;;12.70;99.90;;;;;;491970;241;28472;-70
2021/08/09 00:44:07;;;;;;;1.90;1.80;;;12.70;99.90;;;;;;492249;241;28040;-70
2021/08/09 00:46:08;;;;;;;1.67;1.57;;;12.60;99.90;;;;;;492318;241;28857;-70
2021/08/09 00:48:09;;;;;;;2.10;1.90;;;12.70;99.90;;;;;;492318;241;28796;-70
2021/08/09 00:50:10;;;;;;;1.50;1.50;;;12.60;99.90;;;;;;492346;241;28627;-70
2021/08/09 00:52:12;;;;;;;1.67;1.60;;;12.60;99.90;;;;;;492343;241;28800;-70
2021/08/09 00:54:13;;;;;;;1.57;1.43;;;12.60;99.90;;;;;;492317;241;28662;-70
2021/08/09 00:56:14;;;;;;;1.83;1.60;;;12.60;99.90;;;;;;492333;238;28710;-70
2021/08/09 00:58:15;;;;;;;1.47;1.47;;;12.60;99.90;;;;;;492319;241;29006;-70
2021/08/09 01:00:17;;;;;;;1.27;1.27;;;12.60;99.90;;;;;;492322;241;28233;-69
2021/08/09 01:02:19;;;;;;;1.70;1.60;;;12.60;99.90;;;;;;492335;241;28425;-70
2021/08/09 01:04:19;;;;;;;1.37;1.37;;;12.70;99.90;;;;;;492283;241;28493;-70
2021/08/09 01:06:20;;;;;;;1.47;1.40;;;12.70;99.90;;;;;;492332;241;28869;-70
2021/08/09 01:08:22;;;;;;;3.60;1.60;;;12.70;99.90;;;;;;492310;241;28172;-70
2021/08/09 01:10:24;;;;;;;1.80;1.70;;;12.60;99.90;;;;;;492339;241;28402;-70
2021/08/09 01:12:24;;;;;;;1.60;1.47;;;12.60;99.90;;;;;;492311;241;28351;-70
2021/08/09 01:14:25;;;;;;;1.60;1.50;;;12.50;99.90;;;;;;492344;241;28607;-70
2021/08/09 01:16:27;;;;;;;1.60;1.50;;;12.50;99.90;;;;;;492327;241;28659;-70
2021/08/09 01:18:28;;;;;;;1.90;1.80;;;12.60;99.90;;;;;;492319;241;28974;-70
2021/08/09 01:20:29;;;;;;;2.03;1.93;;;12.60;99.90;;;;;;492351;241;29999;-70
2021/08/09 01:22:30;;;;;;;1.73;1.63;;;12.60;99.90;;;;;;492335;241;28783;-70
2021/08/09 01:24:32;;;;;;;1.90;1.80;;;12.50;99.90;;;;;;492302;241;28208;-70
2021/08/09 01:26:35;;;;;;;2.10;1.90;;;12.50;99.90;;;;;;492324;241;28026;-70
2021/08/09 01:28:34;;;;;;;1.70;1.60;;;12.50;99.90;;;;;;492191;241;28322;-70
2021/08/09 01:30:35;;;;;;;2.20;2.10;;;12.50;99.90;;;;;;492316;241;28296;-70
2021/08/09 01:32:37;;;;;;;1.60;1.50;;;12.50;99.90;;;;;;492298;241;28540;-70
2021/08/09 01:34:38;;;;;;;1.80;1.70;;;12.50;99.90;;;;;;492323;241;28075;-71
2021/08/09 01:36:39;;;;;;;1.60;1.50;;;12.50;99.90;;;;;;492321;241;28483;-70
2021/08/09 01:38:41;;;;;;;1.63;1.53;;;12.50;99.90;;;;;;492323;241;28519;-69
2021/08/09 01:40:42;;;;;;;1.60;1.60;;;12.40;99.90;;;;;;492316;241;28611;-70
2021/08/09 01:42:43;;;;;;;1.70;1.60;;;12.40;99.90;;;;;;492343;241;28649;-70
2021/08/09 01:44:44;;;;;;;4.27;1.80;;;12.40;99.90;;;;;;492364;241;28902;-70
2021/08/09 01:46:46;;;;;;;2.27;1.90;;;12.40;99.90;;;;;;492361;241;28449;-69
2021/08/09 01:48:47;;;;;;;1.60;1.50;;;12.40;99.90;;;;;;492349;241;28377;-70
2021/08/09 01:50:48;;;;;;;1.70;1.60;;;12.50;99.90;;;;;;492355;241;28396;-70
2021/08/09 01:52:49;;;;;;;1.37;1.37;;;12.40;99.90;;;;;;492332;241;28371;-70
2021/08/09 01:54:51;;;;;;;1.43;1.40;;;12.40;99.90;;;;;;492264;241;28221;-70
2021/08/09 01:56:52;;;;;;;1.87;1.77;;;12.40;99.90;;;;;;492308;241;28179;-71
2021/08/09 01:58:53;;;;;;;1.43;1.40;;;12.40;99.90;;;;;;492300;241;28280;-70
2021/08/09 02:00:54;;;;;;;2.00;1.80;;;12.40;99.90;;;;;;492323;241;28164;-70
2021/08/09 02:02:56;;;;;;;1.90;1.80;;;12.50;99.90;;;;;;492225;241;28292;-70
2021/08/09 02:04:58;;;;;;;1.30;1.30;;;;;;;;;;492326;241;29068;-70
2021/08/09 02:06:59;;;;;;;1.77;1.30;;;12.50;99.90;;;;;;492326;241;27184;-70
2021/08/09 02:09:00;;;;;;;1.50;1.40;;;12.40;99.90;;;;;;492058;241;28548;-70
2021/08/09 02:11:02;;;;;;;1.70;1.60;;;12.40;99.90;;;;;;492262;241;28297;-70
2021/08/09 02:13:03;;;;;;;1.40;1.40;;;12.40;99.90;;;;;;492360;241;28304;-70
2021/08/09 02:15:04;;;;;;;1.90;1.30;;;12.30;99.90;;;;;;492366;241;28405;-70
2021/08/09 02:17:05;;;;;;;1.40;1.40;;;12.30;99.90;;;;;;492167;240;29264;-70
2021/08/09 02:19:07;;;;;;;1.27;1.27;;;12.20;99.90;;;;;;492342;241;28885;-70
2021/08/09 02:21:08;;;;;;;1.87;1.77;;;12.20;99.90;;;;;;492323;241;28956;-70
2021/08/09 02:23:09;;;;;;;1.50;1.40;;;12.10;99.90;;;;;;492331;241;28375;-70
2021/08/09 02:25:10;;;;;;;1.40;1.40;;;12.10;99.90;;;;;;492346;241;28382;-69
2021/08/09 02:27:12;;;;;;;1.33;1.33;;;12.10;99.90;;;;;;492356;241;28111;-70
2021/08/09 02:29:13;;;;;;;1.57;1.47;;;12.10;99.90;;;;;;492370;241;28067;-70
2021/08/09 02:31:14;;;;;;;1.80;1.70;;;12.20;99.90;;;;;;492360;240;28254;-70
2021/08/09 02:33:15;;;;;;;1.70;1.60;;;12.20;99.90;;;;;;492355;241;28264;-70
2021/08/09 02:35:17;;;;;;;1.60;1.53;;;12.30;99.90;;;;;;492343;241;28154;-70
2021/08/09 02:37:18;;;;;;;1.60;1.50;;;12.30;99.90;;;;;;492356;241;28353;-69
2021/08/09 02:39:19;;;;;;;1.50;1.40;;;12.30;99.90;;;;;;492352;241;28362;-70
2021/08/09 02:41:20;;;;;;;1.70;1.60;;;12.30;99.90;;;;;;492367;241;28971;-70
2021/08/09 02:43:22;;;;;;;1.50;1.50;;;12.30;99.90;;;;;;492349;241;28869;-70
2021/08/09 02:45:23;;;;;;;1.47;1.37;;;12.30;99.90;;;;;;492364;240;28863;-70
2021/08/09 02:47:24;;;;;;;1.80;1.70;;;12.30;99.90;;;;;;492322;241;28166;-70
2021/08/09 02:49:26;;;;;;;1.43;1.43;;;12.30;99.90;;;;;;492335;238;28076;-70
2021/08/09 02:51:27;;;;;;;1.43;1.33;;;12.20;99.90;;;;;;492360;241;28146;-70
2021/08/09 02:53:28;;;;;;;1.47;1.37;;;12.20;99.90;;;;;;492367;241;28302;-71
2021/08/09 02:55:29;;;;;;;1.20;1.20;;;12.20;99.90;;;;;;492354;240;28501;-70
2021/08/09 02:57:31;;;;;;;1.40;1.30;;;12.20;99.90;;;;;;492363;241;28188;-70
2021/08/09 02:59:32;;;;;;;1.50;1.40;;;12.10;99.90;;;;;;492344;241;28297;-70
2021/08/09 03:01:33;;;;;;;1.47;1.40;;;12.20;99.90;;;;;;492320;241;28067;-69
2021/08/09 03:03:35;;;;;;;1.83;1.27;;;12.20;99.90;;;;;;492320;241;28463;-70
2021/08/09 03:05:36;;;;;;;2.63;1.33;;;12.20;99.90;;;;;;492265;239;28618;-70
2021/08/09 03:07:37;;;;;;;1.30;1.30;;;12.30;99.90;;;;;;492328;241;28729;-70
2021/08/09 03:09:38;;;;;;;1.77;1.47;;;12.30;99.90;;;;;;492255;237;28865;-70
2021/08/09 03:11:39;;;;;;;1.67;1.57;;;12.30;99.90;;;;;;492342;241;28255;-69
2021/08/09 03:13:41;;;;;;;1.43;1.43;;;12.30;99.90;;;;;;492317;241;28815;-70
2021/08/09 03:15:42;;;;;;;1.10;1.10;;;12.30;99.90;;;;;;492321;241;28257;-70
2021/08/09 03:17:44;;;;;;;1.60;1.50;;;12.30;99.90;;;;;;492335;241;28133;-70
2021/08/09 03:19:44;;;;;;;1.60;1.50;;;12.30;99.90;;;;;;492260;241;28384;-70
2021/08/09 03:21:46;;;;;;;1.40;1.40;;;12.30;99.90;;;;;;492354;240;28382;-70
2021/08/09 03:23:47;;;;;;;1.40;1.40;;;12.30;99.90;;;;;;492365;241;28509;-70
2021/08/09 03:25:48;;;;;;;1.23;1.13;;;12.40;99.90;;;;;;492324;241;28466;-70
2021/08/09 03:27:49;;;;;;;1.20;1.20;;;12.40;99.90;;;;;;492308;241;28830;-70
2021/08/09 03:29:51;;;;;;;1.40;1.30;;;12.40;99.90;;;;;;492320;241;29325;-70
2021/08/09 03:31:52;;;;;;;2.63;1.77;;;12.40;99.90;;;;;;492363;241;28688;-69
2021/08/09 03:33:53;;;;;;;1.90;1.80;;;12.50;99.90;;;;;;492343;241;28892;-70
2021/08/09 03:35:54;;;;;;;1.20;1.20;;;12.40;99.90;;;;;;492350;241;28159;-70
2021/08/09 03:37:56;;;;;;;1.10;1.10;;;12.50;99.90;;;;;;492360;241;28346;-70
2021/08/09 03:39:57;;;;;;;1.40;1.40;;;12.50;99.90;;;;;;492348;241;28471;-70
2021/08/09 03:41:58;;;;;;;1.20;1.20;;;12.50;99.90;;;;;;492341;241;28880;-70
2021/08/09 03:43:59;;;;;;;1.70;1.60;;;12.40;99.90;;;;;;492308;241;28821;-71
2021/08/09 03:46:01;;;;;;;2.00;1.60;;;12.40;99.90;;;;;;492313;241;28418;-70
2021/08/09 03:48:02;;;;;;;3.03;1.60;;;12.40;99.90;;;;;;492336;241;28766;-70
2021/08/09 03:50:03;;;;;;;1.77;1.67;;;12.40;99.90;;;;;;492308;241;29077;-70
2021/08/09 03:52:04;;;;;;;1.70;1.60;;;12.40;99.90;;;;;;492336;241;28617;-70
2021/08/09 03:54:06;;;;;;;1.50;1.40;;;12.50;99.90;;;;;;492325;241;28793;-70
2021/08/09 03:56:07;;;;;;;1.70;1.60;;;12.50;99.90;;;;;;492336;241;30656;-70
2021/08/09 03:58:08;;;;;;;1.60;1.50;;;12.50;99.90;;;;;;492338;241;28222;-70
2021/08/09 04:00:09;;;;;;;1.70;1.60;;;12.60;99.90;;;;;;492359;241;28400;-70
2021/08/09 04:02:15;;;;;;;1.73;1.63;;;12.60;99.90;;;;;;492341;241;28588;-70
2021/08/09 04:04:12;;;;;;;1.63;1.53;;;12.60;99.90;;;;;;492037;241;28370;-70
2021/08/09 04:06:13;;;;;;;1.70;1.60;;;12.60;99.90;;;;;;492335;241;28851;-69
2021/08/09 04:08:14;;;;;;;1.80;1.70;;;12.70;99.90;;;;;;492348;241;28433;-70
2021/08/09 04:10:16;;;;;;;1.40;1.30;;;12.70;99.90;;;;;;492346;241;28541;-70
2021/08/09 04:12:17;;;;;;;1.70;1.60;;;12.60;99.90;;;;;;492380;241;29333;-70
2021/08/09 04:14:18;;;;;;;1.23;1.23;;;12.70;99.90;;;;;;492361;241;28842;-70
2021/08/09 04:16:19;;;;;;;1.50;1.40;;;12.70;99.90;;;;;;492352;241;28872;-70
2021/08/09 04:18:21;;;;;;;1.40;1.30;;;12.60;99.90;;;;;;492374;241;28855;-70
2021/08/09 04:20:22;;;;;;;1.40;1.30;;;12.60;99.90;;;;;;492369;241;28265;-70
2021/08/09 04:22:23;;;;;;;2.40;1.47;;;12.60;99.90;;;;;;492381;241;28477;-70
2021/08/09 04:24:24;;;;;;;1.40;1.30;;;12.60;99.90;;;;;;492373;241;28384;-70
2021/08/09 04:26:26;;;;;;;1.60;1.50;;;12.60;99.90;;;;;;492035;241;28515;-69
2021/08/09 04:28:27;;;;;;;1.67;1.57;;;12.60;99.90;;;;;;492367;241;28448;-70
2021/08/09 04:30:28;;;;;;;3.57;1.60;;;12.60;99.90;;;;;;492393;241;28174;-70
2021/08/09 04:32:29;;;;;;;1.63;1.53;;;12.50;99.90;;;;;;492341;241;28787;-70
2021/08/09 04:34:31;;;;;;;1.50;1.40;;;12.50;99.90;;;;;;492324;241;28837;-70
2021/08/09 04:36:32;;;;;;;1.53;1.43;;;12.50;99.90;;;;;;492313;241;28609;-70
2021/08/09 04:38:33;;;;;;;1.93;1.50;;;12.50;99.90;;;;;;492329;241;29414;-70
2021/08/09 04:40:34;;;;;;;2.03;1.57;;;12.50;99.90;;;;;;492340;241;28978;-69
2021/08/09 04:42:36;;;;;;;1.60;1.50;;;12.50;99.90;;;;;;492357;240;28771;-70
2021/08/09 04:44:37;;;;;;;1.73;1.63;;;12.50;99.90;;;;;;492341;241;28188;-70
2021/08/09 04:46:38;;;;;;;1.70;1.60;;;12.50;99.90;;;;;;492327;241;28398;-70
2021/08/09 04:48:39;;;;;;;1.40;1.40;;;12.50;99.90;;;;;;492333;241;28239;-70
2021/08/09 04:50:41;;;;;;;1.50;1.40;;;12.50;99.90;;;;;;492359;241;28141;-70
2021/08/09 04:52:42;;;;;;;1.50;1.40;;;12.50;99.90;;;;;;492352;241;27906;-69
2021/08/09 04:54:43;;;;;;;2.23;2.13;;;12.50;99.90;;;;;;492336;241;28812;-70
2021/08/09 04:56:44;;;;;;;1.80;1.70;;;12.50;99.90;;;;;;492323;238;28531;-70
2021/08/09 04:58:46;;;;;;;2.10;2.00;;;12.50;99.90;;;;;;492311;241;28927;-70
2021/08/09 05:00:47;;;;;;;2.23;2.13;;;12.50;99.90;;;;;;492247;237;29305;-70
2021/08/09 05:02:48;;;;;;;2.23;2.13;;;12.50;99.90;;;;;;492275;241;28910;-70
2021/08/09 05:04:49;;;;;;;2.30;2.20;;;12.50;99.90;;;;;;492234;241;28604;-70
2021/08/09 05:06:51;;;;;;;2.03;1.87;;;12.50;99.90;;;;;;491515;240;28306;-70
2021/08/09 05:08:52;;;;;;;2.07;1.97;;;12.60;99.90;;;;;;491769;241;27922;-69
2021/08/09 05:10:53;;;;;;;2.20;1.97;;;12.60;99.90;;;;;;492097;241;28110;-70
2021/08/09 05:12:54;;;;;;;1.57;1.47;;;12.70;99.90;;;;;;492190;241;28880;-70
2021/08/09 05:14:56;;;;;;;1.90;1.80;;;12.70;99.90;;;;;;492336;241;28379;-70
2021/08/09 05:16:57;;;;;;;1.60;1.60;;;12.70;99.90;;;;;;492332;237;28373;-70
2021/08/09 05:19:02;;;;;;;1.67;1.60;;;12.70;99.90;;;;;;492360;241;28170;-70
2021/08/09 05:20:59;;;;;;;1.70;1.60;;;12.80;99.90;;;;;;492106;241;29289;-70
2021/08/09 05:23:01;;;;;;;2.10;1.60;;;12.80;99.90;;;;;;492349;240;29270;-70
2021/08/09 05:25:08;;;;;;;1.70;1.60;;;12.80;99.90;;;;;;492350;241;28783;-70
2021/08/09 05:27:03;;;;;;;1.90;1.80;;;12.90;99.90;;;;;;491742;241;28067;-70
2021/08/09 05:29:05;;;;;;;1.80;1.70;;;13.00;99.90;;;;;;492337;241;28219;-70
2021/08/09 05:31:06;;;;;;;1.77;1.67;;;13.10;99.90;;;;;;492330;241;28813;-70
2021/08/09 05:33:07;;;;;;;1.80;1.70;;;13.20;99.90;;;;;;492341;241;28148;-70
2021/08/09 05:35:08;;;;;;;1.80;1.70;;;13.30;99.90;;;;;;492345;241;28319;-69
2021/08/09 05:37:09;;;;;;;1.90;1.80;;;13.40;99.90;;;;;;492342;241;28754;-72
2021/08/09 05:39:11;;;;;;;2.13;1.70;;;13.40;99.90;;;;;;492389;241;28218;-69
2021/08/09 05:41:12;;;;;;;1.60;1.50;;;13.40;99.90;;;;;;492370;241;28384;-69
2021/08/09 05:43:13;;;;;;;2.00;1.80;;;13.40;99.90;;;;;;492328;241;28148;-69
2021/08/09 05:45:14;;;;;;;2.03;1.93;;;13.40;99.90;;;;;;492301;241;28958;-69
2021/08/09 05:47:16;;;;;;;2.50;2.40;;;13.40;99.90;;;;;;492319;241;28977;-69
2021/08/09 05:49:17;;;;;;;1.90;1.80;;;13.50;99.90;;;;;;492324;241;28622;-69
2021/08/09 05:51:18;;;;;;;3.73;2.10;;;13.50;99.90;;;;;;492237;241;28983;-69
2021/08/09 05:53:19;;;;;;;1.83;1.73;;;13.50;99.90;;;;;;492329;241;28247;-69
2021/08/09 05:55:23;;;;;;;1.80;1.70;;;13.50;99.90;;;;;;492349;241;28186;-69
2021/08/09 05:57:22;;;;;;;2.13;2.03;;;13.60;99.90;;;;;;492197;241;28286;-69
2021/08/09 05:59:23;;;;;;;2.17;2.07;;;13.70;99.90;;;;;;492329;240;28238;-69
2021/08/09 06:01:24;;;;;;;1.70;1.60;;;13.70;99.90;;;;;;492315;239;28296;-69
2021/08/09 06:03:26;;;;;;;1.53;1.53;;;13.80;99.90;;;;;;492315;241;28229;-69
2021/08/09 06:05:28;;;;;;;3.50;2.03;;;13.90;99.90;;;;;;492332;241;28309;-70
2021/08/09 06:07:28;;;;;;;2.23;2.13;;;13.90;99.90;;;;;;492320;241;28185;-70
2021/08/09 06:09:29;;;;;;;2.10;2.00;;;14.00;99.90;;;;;;492316;241;28364;-70
2021/08/09 06:11:31;;;;;;;2.30;2.20;;;14.10;99.90;;;;;;492314;241;28834;-70
2021/08/09 06:13:32;;;;;;;4.00;1.83;;;14.10;99.90;;;;;;492326;241;28871;-70
2021/08/09 06:15:33;;;;;;;1.97;1.87;;;14.10;99.90;;;;;;492325;241;28970;-69
2021/08/09 06:17:34;;;;;;;2.03;1.90;;;14.20;99.90;;;;;;492242;241;28408;-71
2021/08/09 06:19:36;;;;;;;1.70;1.60;;;14.20;99.90;;;;;;492331;241;28169;-71
2021/08/09 06:21:37;;;;;;;1.70;1.60;;;14.30;99.90;;;;;;492345;241;28630;-71
2021/08/09 06:23:38;;;;;;;1.83;1.73;;;14.30;99.90;;;;;;492332;241;28801;-71
2021/08/09 06:25:39;;;;;;;2.00;1.90;;;14.40;99.90;;;;;;492334;241;28289;-71
2021/08/09 06:27:41;;;;;;;1.80;1.70;;;14.50;99.90;;;;;;492381;241;28516;-71
2021/08/09 06:29:42;;;;;;;1.43;1.40;;;14.60;99.90;;;;;;492355;241;28766;-71
2021/08/09 06:31:43;;;;;;;2.00;1.90;;;14.70;99.90;;;;;;492339;241;28827;-71
2021/08/09 06:33:45;;;;;;;4.00;2.00;;;14.80;99.90;;;;;;492223;241;29420;-71
2021/08/09 06:35:46;;;;;;;2.00;1.90;;;14.90;99.90;;;;;;491647;241;29690;-71
2021/08/09 06:37:47;;;;;;;2.60;2.40;;;14.90;99.90;;;;;;492132;241;28969;-71
2021/08/09 06:39:48;;;;;;;6.33;2.07;;;15.00;99.90;;;;;;491619;241;29614;-69
2021/08/09 06:41:50;;;;;;;2.70;2.57;;;15.10;99.90;;;;;;491878;241;28910;-70
2021/08/09 06:43:51;;;;;;;2.60;2.50;;;15.10;99.90;;;;;;492170;241;28929;-69
2021/08/09 06:45:52;;;;;;;2.10;2.00;;;15.20;99.90;;;;;;492303;241;28678;-72
2021/08/09 06:47:53;;;;;;;1.87;1.70;;;15.20;99.90;;;;;;492343;241;28836;-71
2021/08/09 06:49:55;;;;;;;2.00;1.90;;;15.20;99.90;;;;;;492323;241;28486;-71
2021/08/09 06:51:56;;;;;;;2.13;1.90;;;15.30;99.90;;;;;;492341;241;28826;-72
2021/08/09 06:53:57;;;;;;;2.50;2.30;;;15.30;99.90;;;;;;492331;241;28977;-71
2021/08/09 06:55:58;;;;;;;2.30;2.10;;;15.40;99.90;;;;;;492342;241;28789;-72
2021/08/09 06:58:00;;;;;;;1.90;1.80;;;15.40;99.90;;;;;;492344;241;29385;-71
2021/08/09 07:00:01;;;;;;;1.60;1.60;;;15.50;99.90;;;;;;492326;240;29181;-71
2021/08/09 07:02:03;;;;;;;1.90;1.80;;;15.60;99.90;;;;;;492308;240;29221;-71
2021/08/09 07:04:03;;;;;;;1.80;1.70;;;15.60;99.90;;;;;;492281;241;29277;-71
2021/08/09 07:06:05;;;;;;;2.63;1.90;;;15.70;99.90;;;;;;492335;241;28763;-72
2021/08/09 07:08:06;;;;;;;1.90;1.80;;;15.70;99.90;;;;;;492344;241;28822;-70
2021/08/09 07:10:07;;;;;;;2.13;2.00;;;15.60;99.90;;;;;;492324;241;28849;-72
2021/08/09 07:12:09;;;;;;;2.50;2.30;;;15.60;99.90;;;;;;492315;241;28864;-72
2021/08/09 07:14:10;;;;;;;2.30;1.90;;;15.50;99.90;;;;;;492311;241;29155;-72
2021/08/09 07:16:11;;;;;;;2.50;2.30;;;15.60;99.90;;;;;;492334;241;28713;-72
2021/08/09 07:18:12;;;;;;;2.50;2.30;;;15.70;99.90;;;;;;492334;241;28779;-72
2021/08/09 07:20:15;;;;;;;2.13;2.03;;;15.70;99.90;;;;;;492322;241;29270;-72
2021/08/09 07:22:15;;;;;;;3.10;2.10;;;15.70;99.90;;;;;;492270;241;29295;-72
2021/08/09 07:24:16;;;;;;;2.90;2.20;;;15.70;99.90;;;;;;492324;241;29384;-72
2021/08/09 07:26:17;;;;;;;1.97;1.90;;;15.80;99.90;;;;;;492329;241;28867;-71
2021/08/09 07:28:18;;;;;;;2.20;1.97;;;15.80;99.90;;;;;;492317;241;28805;-71
2021/08/09 07:30:20;;;;;;;2.57;2.37;;;15.90;99.90;;;;;;492287;241;28863;-71
2021/08/09 07:32:21;;;;;;;5.50;2.27;;;15.90;99.90;;;;;;492309;241;28714;-71
2021/08/09 07:34:22;;;;;;;2.17;2.07;;;16.00;99.90;;;;;;492300;241;29272;-71
2021/08/09 07:36:23;;;;;;;6.70;2.97;;;16.00;99.90;;;;;;492307;241;28868;-71
2021/08/09 07:38:25;;;;;;;3.00;2.70;;;16.00;99.90;;;;;;492307;241;28834;-71
2021/08/09 07:40:26;;;;;;;2.40;2.20;;;16.10;99.90;;;;;;492318;241;28782;-71
2021/08/09 07:42:27;;;;;;;2.60;2.33;;;16.00;99.90;;;;;;492318;241;28788;-71
2021/08/09 07:44:28;;;;;;;1.87;1.77;;;16.00;99.90;;;;;;492291;241;29282;-71
2021/08/09 07:46:30;;;;;;;1.90;1.70;;;16.10;99.90;;;;;;492227;241;29348;-72
2021/08/09 07:48:31;;;;;;;2.60;1.80;;;16.20;99.90;;;;;;492295;241;29306;-72
2021/08/09 07:50:32;;;;;;;1.90;1.80;;;16.20;99.90;;;;;;492297;241;29356;-72
2021/08/09 07:52:33;;;;;;;1.63;1.53;;;16.30;99.90;;;;;;492299;241;28706;-72
2021/08/09 07:54:35;;;;;;;2.50;1.90;;;16.30;99.90;;;;;;492307;241;28793;-72
2021/08/09 07:56:36;;;;;;;1.80;1.70;;;16.20;99.90;;;;;;492331;241;28792;-72
2021/08/09 07:58:37;;;;;;;2.87;1.67;;;16.30;99.90;;;;;;492312;241;28907;-70
2021/08/09 08:00:39;;;;;;;2.20;2.10;;;16.40;99.90;;;;;;492324;241;28852;-72
2021/08/09 08:02:40;;;;;;;1.53;1.43;;;16.40;99.90;;;;;;492318;240;28921;-72
2021/08/09 08:04:44;;;;;;;2.93;2.00;;;16.40;99.90;;;;;;492359;241;29167;-72
2021/08/09 08:06:42;;;;;;;1.60;1.50;;;16.50;99.90;;;;;;492028;241;28833;-72
2021/08/09 08:08:43;;;;;;;1.50;1.40;;;16.60;99.90;;;;;;492296;241;29277;-71
2021/08/09 08:10:45;;;;;;;1.70;1.60;;;16.60;99.90;;;;;;492288;240;29247;-69
2021/08/09 08:12:46;;;;;;;2.07;1.63;;;16.60;99.90;;;;;;492208;241;29329;-70
2021/08/09 08:14:47;;;;;;;2.40;1.50;;;16.70;99.90;;;;;;492342;241;29291;-69
2021/08/09 08:16:48;;;;;;;1.60;1.50;;;16.80;99.90;;;;;;492343;241;28855;-72
2021/08/09 08:18:50;;;;;;;2.63;1.80;;;16.90;99.90;;;;;;492348;241;28806;-72
2021/08/09 08:20:52;;;;;;;1.70;1.60;;;17.00;99.90;;;;;;492360;241;28802;-71
2021/08/09 08:22:53;;;;;;;1.90;1.80;;;17.10;99.90;;;;;;492308;241;28872;-72
2021/08/09 08:24:53;;;;;;;1.77;1.67;;;17.10;99.90;;;;;;492292;241;28845;-72
2021/08/09 08:26:55;;;;;;;1.50;1.40;;;17.10;99.90;;;;;;492378;241;28856;-72
2021/08/09 08:28:56;;;;;;;2.27;1.57;;;17.20;99.90;;;;;;492338;241;28821;-72
2021/08/09 08:30:57;;;;;;;7.20;1.80;;;17.20;99.90;;;;;;492369;241;28899;-71
2021/08/09 08:32:58;;;;;;;2.03;1.83;;;17.20;99.90;;;;;;492342;241;29347;-72
2021/08/09 08:35:01;;;;;;;1.70;1.60;;;17.30;99.90;;;;;;492361;241;29375;-71
2021/08/09 08:37:01;;;;;;;1.90;1.80;;;17.40;99.90;;;;;;492202;241;29272;-72
2021/08/09 08:39:02;;;;;;;2.10;2.00;;;17.40;99.90;;;;;;492341;241;29226;-72
2021/08/09 08:41:03;;;;;;;1.90;1.80;;;17.40;99.90;;;;;;492326;241;28879;-72
2021/08/09 08:43:05;;;;;;;2.10;1.90;;;17.30;99.90;;;;;;492352;241;28784;-72
2021/08/09 08:45:06;;;;;;;2.10;1.80;;;17.30;99.90;;;;;;492348;241;28802;-72
2021/08/09 08:47:07;;;;;;;1.90;1.80;;;17.30;99.90;;;;;;492332;241;28832;-72
2021/08/09 08:49:13;;;;;;;1.70;1.60;;;17.50;99.90;;;;;;492337;241;28893;-72
2021/08/09 08:51:10;;;;;;;1.60;1.50;;;17.50;99.90;;;;;;491996;241;28915;-70
2021/08/09 08:53:11;;;;;;;2.70;1.60;;;17.50;99.90;;;;;;492355;241;28832;-69
2021/08/09 08:55:12;;;;;;;3.40;1.90;;;17.40;99.90;;;;;;492360;241;28782;-70
2021/08/09 08:57:13;;;;;;;2.33;1.70;;;17.70;99.90;;;;;;492337;241;28766;-70
2021/08/09 08:59:16;;;;;;;3.10;2.00;;;17.90;99.90;;;;;;492347;241;29424;-70
2021/08/09 09:01:16;;;;;;;2.53;1.60;;;18.00;99.90;;;;;;492316;241;29375;-69
2021/08/09 09:03:17;;;;;;;1.67;1.57;;;18.20;99.90;;;;;;492311;241;29244;-70
2021/08/09 09:05:18;;;;;;;2.07;1.37;;;18.20;99.90;;;;;;492324;241;28809;-71
2021/08/09 09:07:20;;;;;;;1.70;1.60;;;18.20;99.90;;;;;;492325;241;28783;-72
2021/08/09 09:09:22;;;;;;;2.13;1.53;;;18.30;99.90;;;;;;492328;241;28860;-71
2021/08/09 09:11:22;;;;;;;2.33;1.80;;;18.40;99.90;;;;;;492302;241;28718;-71
2021/08/09 09:13:24;;;;;;;1.83;1.70;;;18.40;99.90;;;;;;492307;241;28874;-71
2021/08/09 09:15:25;;;;;;;2.40;1.70;;;18.40;99.90;;;;;;492326;241;28836;-71
2021/08/09 09:17:26;;;;;;;1.90;1.80;;;18.50;99.90;;;;;;492328;241;28822;-71
2021/08/09 09:19:27;;;;;;;1.70;1.60;;;18.50;99.90;;;;;;492329;241;28905;-71
2021/08/09 09:21:28;;;;;;;2.30;1.60;;;18.40;99.90;;;;;;492322;241;28920;-71
2021/08/09 09:23:30;;;;;;;1.73;1.63;;;18.30;99.90;;;;;;492321;241;29294;-71
2021/08/09 09:25:31;;;;;;;1.80;1.70;;;18.40;99.90;;;;;;492324;241;29405;-71
2021/08/09 09:27:32;;;;;;;1.27;1.27;;;18.50;99.90;;;;;;492319;241;29268;-71
2021/08/09 09:29:34;;;;;;;2.10;1.60;;;18.60;99.90;;;;;;492292;241;28806;-72
2021/08/09 09:31:35;;;;;;;1.67;1.57;;;18.60;99.90;;;;;;492328;241;28821;-71
2021/08/09 09:33:36;;;;;;;1.67;1.57;;;18.70;99.90;;;;;;492318;241;28789;-69
2021/08/09 09:35:37;;;;;;;3.60;1.53;;;18.90;99.90;;;;;;492334;241;28834;-72
2021/08/09 09:37:39;;;;;;;2.60;1.80;;;19.00;99.90;;;;;;492345;241;28773;-71
2021/08/09 09:39:40;;;;;;;7.40;1.67;;;19.00;99.90;;;;;;492287;241;28715;-71
2021/08/09 09:41:41;;;;;;;2.40;1.80;;;19.10;99.90;;;;;;492337;241;28820;-72
2021/08/09 09:43:42;;;;;;;1.50;1.40;;;19.20;99.90;;;;;;492342;241;28865;-71
2021/08/09 09:45:43;;;;;;;3.07;1.90;;;19.60;99.90;;;;;;492353;241;28910;-72
2021/08/09 09:47:45;;;;;;;2.30;1.77;;;19.70;99.90;;;;;;492337;241;29219;-72
2021/08/09 09:49:46;;;;;;;3.93;1.50;;;19.50;99.90;;;;;;492340;241;30130;-71
2021/08/09 09:51:47;;;;;;;2.00;1.70;;;19.30;99.90;;;;;;492160;241;29299;-72
2021/08/09 09:53:48;;;;;;;1.60;1.50;;;19.30;99.90;;;;;;492215;241;28793;-71
2021/08/09 09:55:50;;;;;;;1.53;1.40;;;19.40;99.90;;;;;;491760;241;28803;-71
2021/08/09 09:57:51;;;;;;;5.77;1.80;;;19.50;99.90;;;;;;491675;241;28824;-71
2021/08/09 09:59:52;;;;;;;1.83;1.50;;;19.60;99.90;;;;;;492355;241;28884;-71
2021/08/09 10:01:53;;;;;;;2.00;1.63;;;19.60;99.90;;;;;;492357;241;28890;-71
2021/08/09 10:03:55;;;;;;;3.03;2.00;;;19.70;99.90;;;;;;492348;241;28852;-72
2021/08/09 10:05:56;;;;;;;2.23;1.90;;;19.80;99.90;;;;;;492363;241;28833;-72
2021/08/09 10:07:57;;;;;;;2.53;1.90;;;19.80;99.90;;;;;;492324;241;28881;-71
2021/08/09 10:09:58;;;;;;;1.63;1.53;;;19.90;99.90;;;;;;492342;241;28768;-71
2021/08/09 10:12:00;;;;;;;2.30;1.97;;;20.00;99.90;;;;;;492318;241;29189;-70
2021/08/09 10:14:01;;;;;;;1.70;1.60;;;19.90;99.90;;;;;;492330;241;29271;-72
2021/08/09 10:16:03;;;;;;;1.60;1.50;;;19.90;99.90;;;;;;492326;241;29255;-72
2021/08/09 10:18:03;;;;;;;2.33;1.60;;;19.80;99.90;;;;;;492327;241;28819;-71
2021/08/09 10:20:05;;;;;;;1.67;1.50;;;19.90;99.90;;;;;;492344;241;28758;-71
2021/08/09 10:22:07;;;;;;;1.40;1.30;;;19.80;99.90;;;;;;492329;241;28749;-72
2021/08/09 10:24:12;;;;;;;1.43;1.33;;;20.00;99.90;;;;;;492340;241;28799;-71
2021/08/09 10:26:10;;;;;;;1.30;1.20;;;20.00;99.90;;;;;;492113;241;28887;-71
2021/08/09 10:28:11;;;;;;;2.17;1.73;;;20.10;99.90;;;;;;492348;241;29296;-71
2021/08/09 10:30:12;;;;;;;1.37;1.27;;;20.10;99.90;;;;;;492331;241;29252;-71
2021/08/09 10:32:13;;;;;;;1.60;1.50;;;20.10;99.90;;;;;;492335;241;29322;-71